createdAt,value
2023-03-21T00:00:17.178Z,4.50
2023-03-21T00:02:43.604Z,6.95
2023-03-21T00:05:15.873Z,4.53
2023-03-21T00:07:42.638Z,5.05
2023-03-21T00:10:16.707Z,5.22
2023-03-21T00:12:44.627Z,4.22
2023-03-21T00:15:12.955Z,4.35
2023-03-21T00:17:39.803Z,3.90
2023-03-21T00:20:08.329Z,5.20
2023-03-21T00:22:35.715Z,5.22
2023-03-21T00:25:02.083Z,4.30
2023-03-21T00:27:47.554Z,4.60
2023-03-21T00:30:15.312Z,4.30
2023-03-21T00:32:55.252Z,4.38
2023-03-21T00:35:53.702Z,3.92
2023-03-21T00:38:08.955Z,3.58
2023-03-21T00:40:40.625Z,4.10
2023-03-21T00:43:11.845Z,3.80
2023-03-21T00:45:39.040Z,3.70
2023-03-21T00:48:05.995Z,4.07
2023-03-21T00:50:32.492Z,3.78
2023-03-21T00:52:58.860Z,3.88
2023-03-21T00:55:25.295Z,3.63
2023-03-21T00:58:01.202Z,3.90
2023-03-21T01:00:28.454Z,4.07
2023-03-21T01:03:08.610Z,3.15
2023-03-21T01:06:01.280Z,3.53
2023-03-21T01:08:35.324Z,3.72
2023-03-21T01:11:10.011Z,3.40
2023-03-21T01:13:38.435Z,3.75
2023-03-21T01:16:07.747Z,3.70
2023-03-21T01:18:35.272Z,3.70
2023-03-21T01:21:01.713Z,3.42
2023-03-21T01:23:29.150Z,3.25
2023-03-21T01:25:56.821Z,4.95
2023-03-21T01:28:25.481Z,3.53
2023-03-21T01:30:52.286Z,3.55
2023-03-21T01:33:20.007Z,3.60
2023-03-21T01:35:55.301Z,3.40
2023-03-21T01:38:26.753Z,3.42
2023-03-21T01:40:53.129Z,3.58
2023-03-21T01:43:24.840Z,3.53
2023-03-21T01:46:00.714Z,3.53
2023-03-21T01:48:28.864Z,3.45
2023-03-21T01:50:56.003Z,4.35
2023-03-21T01:53:24.040Z,4.43
2023-03-21T01:55:50.588Z,4.15
2023-03-21T01:58:18.438Z,4.97
2023-03-21T02:00:45.764Z,4.00
2023-03-21T02:03:26.201Z,5.20
2023-03-21T02:06:01.444Z,4.30
2023-03-21T02:08:38.781Z,3.97
2023-03-21T02:11:06.327Z,4.70
2023-03-21T02:13:32.690Z,4.50
2023-03-21T02:16:01.205Z,4.72
2023-03-21T02:18:51.623Z,5.05
2023-03-21T02:23:59.376Z,4.53
2023-03-21T02:26:40.926Z,3.85
2023-03-21T02:29:11.696Z,4.03
2023-03-21T02:31:48.066Z,4.33
2023-03-21T02:34:17.536Z,5.60
2023-03-21T02:37:05.737Z,3.80
2023-03-21T02:39:54.897Z,4.20
2023-03-21T02:42:28.971Z,4.88
2023-03-21T02:44:58.565Z,4.45
2023-03-21T02:47:34.804Z,4.60
2023-03-21T02:50:13.052Z,4.50
2023-03-21T02:52:40.023Z,4.10
2023-03-21T02:55:26.498Z,4.43
2023-03-21T02:57:53.891Z,3.95
2023-03-21T03:00:21.708Z,4.80
2023-03-21T03:02:54.624Z,4.07
2023-03-21T03:05:28.129Z,5.18
2023-03-21T03:07:57.535Z,3.38
2023-03-21T03:10:23.941Z,3.50
2023-03-21T03:13:09.260Z,3.60
2023-03-21T03:15:38.713Z,4.65
2023-03-21T03:18:14.693Z,4.10
2023-03-21T03:20:44.888Z,5.65
2023-03-21T03:25:43.192Z,3.35
2023-03-21T03:28:11.266Z,5.43
2023-03-21T03:30:43.390Z,4.55
2023-03-21T03:33:17.159Z,5.35
2023-03-21T03:35:46.437Z,4.65
2023-03-21T03:38:14.843Z,4.40
2023-03-21T03:40:44.090Z,4.78
2023-03-21T03:43:13.834Z,5.57
2023-03-21T03:45:47.433Z,4.72
2023-03-21T03:48:15.679Z,5.47
2023-03-21T03:50:51.821Z,4.28
2023-03-21T03:53:30.508Z,5.63
2023-03-21T03:55:57.195Z,4.35
2023-03-21T03:58:33.463Z,4.45
2023-03-21T04:01:07.298Z,5.40
2023-03-21T04:03:47.942Z,5.85
2023-03-21T04:06:16.736Z,4.57
2023-03-21T04:08:43.305Z,5.00
2023-03-21T04:11:10.742Z,4.22
2023-03-21T04:13:37.138Z,5.32
2023-03-21T04:16:04.794Z,5.05
2023-03-21T04:18:32.225Z,3.97
2023-03-21T04:20:58.631Z,5.93
2023-03-21T04:23:25.073Z,5.18
2023-03-21T04:25:56.671Z,5.70
2023-03-21T04:28:23.576Z,5.20
2023-03-21T04:31:01.407Z,4.90
2023-03-21T04:33:31.509Z,6.07
2023-03-21T04:35:59.065Z,5.00
2023-03-21T04:38:30.690Z,5.15
2023-03-21T04:40:57.575Z,4.88
2023-03-21T04:43:24.277Z,4.93
2023-03-21T04:45:51.084Z,5.03
2023-03-21T04:48:19.504Z,4.63
2023-03-21T04:50:46.153Z,6.05
2023-03-21T04:53:12.838Z,5.63
2023-03-21T04:55:39.296Z,5.20
2023-03-21T04:58:05.711Z,5.20
2023-03-21T05:00:32.848Z,6.40
2023-03-21T05:03:00.160Z,4.82
2023-03-21T05:05:27.104Z,5.07
2023-03-21T05:07:53.541Z,6.50
2023-03-21T05:10:19.986Z,5.30
2023-03-21T05:12:46.343Z,6.35
2023-03-21T05:15:12.763Z,4.57
2023-03-21T05:17:39.185Z,4.93
2023-03-21T05:20:09.288Z,6.10
2023-03-21T05:22:40.804Z,4.25
2023-03-21T05:25:11.704Z,4.70
2023-03-21T05:27:38.164Z,6.30
2023-03-21T05:30:06.108Z,4.70
2023-03-21T05:32:32.692Z,5.43
2023-03-21T05:34:59.100Z,5.25
2023-03-21T05:37:25.496Z,5.25
2023-03-21T05:39:52.050Z,5.50
2023-03-21T05:42:21.352Z,6.65
2023-03-21T05:44:48.208Z,5.32
2023-03-21T05:47:16.059Z,5.20
2023-03-21T05:49:42.826Z,4.90
2023-03-21T05:52:09.798Z,5.57
2023-03-21T05:54:36.447Z,5.20
2023-03-21T05:57:03.805Z,5.90
2023-03-21T05:59:30.336Z,5.25
2023-03-21T06:01:56.717Z,4.30
2023-03-21T06:04:23.099Z,5.40
2023-03-21T06:06:50.906Z,4.75
2023-03-21T06:09:17.290Z,6.07
2023-03-21T06:11:46.988Z,4.60
2023-03-21T06:14:13.361Z,4.13
2023-03-21T06:16:39.751Z,6.78
2023-03-21T06:19:06.232Z,4.53
2023-03-21T06:21:32.593Z,4.00
2023-03-21T06:23:59.093Z,5.32
2023-03-21T06:26:25.684Z,4.97
2023-03-21T06:28:52.879Z,5.32
2023-03-21T06:31:22.504Z,4.70
2023-03-21T06:33:49.552Z,6.40
2023-03-21T06:36:16.048Z,4.68
2023-03-21T06:38:42.431Z,5.70
2023-03-21T06:41:09.065Z,4.95
2023-03-21T06:43:35.509Z,7.00
2023-03-21T06:46:01.949Z,5.93
2023-03-21T06:48:28.342Z,4.82
2023-03-21T06:50:55.264Z,5.25
2023-03-21T06:53:24.391Z,4.43
2023-03-21T06:55:51.527Z,6.25
2023-03-21T07:01:03.089Z,4.13
2023-03-21T07:03:29.686Z,4.30
2023-03-21T07:05:56.641Z,4.38
2023-03-21T07:08:23.029Z,4.15
2023-03-21T07:10:49.864Z,6.30
2023-03-21T07:13:18.689Z,5.63
2023-03-21T07:15:45.227Z,5.40
2023-03-21T07:18:11.752Z,5.55
2023-03-21T07:20:38.191Z,4.45
2023-03-21T07:23:04.882Z,4.72
2023-03-21T07:25:31.455Z,5.95
2023-03-21T07:27:57.914Z,5.47
2023-03-21T07:30:24.355Z,6.85
2023-03-21T07:32:50.896Z,6.22
2023-03-21T07:35:17.590Z,5.45
2023-03-21T07:37:44.125Z,6.03
2023-03-21T07:40:10.879Z,6.28
2023-03-21T07:42:37.772Z,7.13
2023-03-21T07:45:05.197Z,7.00
2023-03-21T07:47:32.177Z,6.80
2023-03-21T07:49:58.717Z,5.10
2023-03-21T07:52:25.179Z,6.20
2023-03-21T07:54:51.571Z,6.75
2023-03-21T07:57:17.976Z,6.90
2023-03-21T07:59:44.716Z,8.25
2023-03-21T08:02:13.653Z,7.45
2023-03-21T08:04:52.548Z,8.30
2023-03-21T08:07:26.452Z,6.78
2023-03-21T08:10:03.168Z,6.88
2023-03-21T08:12:29.666Z,8.23
2023-03-21T08:15:01.055Z,8.35
2023-03-21T08:17:27.710Z,8.38
2023-03-21T08:19:54.200Z,7.63
2023-03-21T08:22:20.584Z,8.48
2023-03-21T08:24:47.055Z,7.63
2023-03-21T08:27:20.863Z,7.93
2023-03-21T08:29:48.654Z,8.05
2023-03-21T08:32:18.061Z,8.55
2023-03-21T08:34:44.529Z,9.02
2023-03-21T08:37:11.319Z,7.70
2023-03-21T08:39:39.058Z,8.05
2023-03-21T08:42:05.703Z,6.47
2023-03-21T08:44:32.092Z,7.07
2023-03-21T08:46:58.530Z,6.63
2023-03-21T08:49:24.909Z,7.07
2023-03-21T08:51:55.203Z,7.32
2023-03-21T08:54:22.645Z,7.15
2023-03-21T08:56:49.090Z,8.65
2023-03-21T08:59:15.751Z,7.13
2023-03-21T09:01:42.225Z,6.50
2023-03-21T09:04:10.889Z,6.15
2023-03-21T09:06:38.122Z,6.15
2023-03-21T09:09:07.434Z,7.45
2023-03-21T09:11:34.490Z,8.30
2023-03-21T09:14:00.927Z,6.18
2023-03-21T09:16:27.747Z,7.18
2023-03-21T09:18:56.949Z,6.78
2023-03-21T09:21:23.691Z,7.50
2023-03-21T09:23:56.226Z,7.32
2023-03-21T09:26:23.466Z,7.50
2023-03-21T09:28:50.363Z,7.45
2023-03-21T09:31:22.821Z,6.50
2023-03-21T09:33:49.870Z,8.25
2023-03-21T09:36:18.783Z,7.80
2023-03-21T09:38:48.026Z,7.53
2023-03-21T09:41:33.556Z,9.60
2023-03-21T09:43:59.910Z,7.38
2023-03-21T09:47:05.470Z,6.25
2023-03-21T09:49:35.297Z,6.88
2023-03-21T09:52:05.547Z,8.25
2023-03-21T09:57:58.060Z,7.30
2023-03-21T10:06:37.897Z,7.53
2023-03-21T10:09:07.554Z,7.15
2023-03-21T10:11:49.412Z,7.65
2023-03-21T10:14:18.813Z,5.65
2023-03-21T10:16:46.818Z,5.43
2023-03-21T10:19:15.258Z,6.38
2023-03-21T10:22:03.459Z,5.97
2023-03-21T10:24:34.646Z,5.40
2023-03-21T10:27:02.623Z,6.35
2023-03-21T10:29:33.470Z,6.22
2023-03-21T10:32:00.367Z,4.72
2023-03-21T10:34:36.625Z,5.38
2023-03-21T10:37:04.516Z,6.07
2023-03-21T10:39:35.871Z,5.22
2023-03-21T10:42:02.298Z,5.97
2023-03-21T10:44:32.630Z,5.47
2023-03-21T10:47:03.860Z,4.70
2023-03-21T10:49:40.574Z,6.25
2023-03-21T10:52:18.810Z,7.57
2023-03-21T10:54:45.785Z,4.35
2023-03-21T10:57:15.230Z,5.35
2023-03-21T10:59:47.386Z,5.32
2023-03-21T11:02:20.631Z,5.30
2023-03-21T11:04:48.365Z,5.75
2023-03-21T11:07:15.423Z,7.50
2023-03-21T11:09:52.491Z,5.50
2023-03-21T11:12:29.589Z,6.53
2023-03-21T11:14:57.394Z,6.22
2023-03-21T11:17:28.191Z,6.35
2023-03-21T11:20:00.887Z,6.10
2023-03-21T11:22:30.043Z,6.35
2023-03-21T11:25:01.347Z,6.45
2023-03-21T11:27:31.890Z,4.97
2023-03-21T11:30:00.990Z,4.82
2023-03-21T11:32:35.076Z,6.47
2023-03-21T11:35:02.191Z,5.85
2023-03-21T11:37:32.466Z,5.32
2023-03-21T11:40:13.881Z,5.07
2023-03-21T11:42:44.441Z,3.95
2023-03-21T11:45:19.008Z,4.28
2023-03-21T11:47:46.347Z,4.13
2023-03-21T11:50:19.300Z,4.07
2023-03-21T11:53:01.007Z,4.60
2023-03-21T11:55:36.830Z,6.18
2023-03-21T11:58:14.548Z,3.42
2023-03-21T12:00:48.962Z,5.70
2023-03-21T12:03:30.710Z,4.80
2023-03-21T12:06:02.133Z,5.00
2023-03-21T12:08:45.808Z,5.13
2023-03-21T12:11:12.236Z,17.27
2023-03-21T12:13:57.543Z,6.22
2023-03-21T12:16:33.201Z,4.85
2023-03-21T12:19:13.133Z,6.75
2023-03-21T12:21:48.778Z,4.43
2023-03-21T12:24:15.320Z,5.05
2023-03-21T12:27:04.772Z,4.32
2023-03-21T12:29:54.577Z,5.63
2023-03-21T12:32:28.096Z,5.05
2023-03-21T12:35:13.394Z,6.00
2023-03-21T12:37:53.862Z,5.80
2023-03-21T12:40:29.787Z,5.43
2023-03-21T12:43:05.506Z,5.43
2023-03-21T12:45:45.691Z,5.85
2023-03-21T12:48:28.036Z,5.85
2023-03-21T12:50:56.251Z,5.00
2023-03-21T12:53:28.780Z,6.32
2023-03-21T12:55:56.876Z,5.85
2023-03-21T12:58:24.966Z,6.38
2023-03-21T13:00:53.496Z,5.45
2023-03-21T13:03:38.912Z,5.10
2023-03-21T13:06:06.790Z,5.90
2023-03-21T13:08:44.770Z,6.53
2023-03-21T13:11:13.943Z,5.45
2023-03-21T13:13:46.847Z,5.57
2023-03-21T13:16:18.215Z,5.93
2023-03-21T13:19:00.824Z,6.10
2023-03-21T13:21:46.147Z,6.00
2023-03-21T13:24:15.705Z,5.57
2023-03-21T13:26:46.079Z,5.13
2023-03-21T13:29:23.079Z,7.40
2023-03-21T13:31:52.429Z,6.15
2023-03-21T13:34:21.338Z,5.78
2023-03-21T13:36:48.881Z,5.25
2023-03-21T13:39:26.810Z,6.10
2023-03-21T13:41:54.701Z,5.50
2023-03-21T13:44:41.871Z,6.05
2023-03-21T13:47:28.522Z,6.32
2023-03-21T13:50:13.497Z,5.80
2023-03-21T13:52:39.884Z,5.53
2023-03-21T13:55:14.638Z,6.65
2023-03-21T13:57:41.047Z,5.20
2023-03-21T14:00:26.954Z,5.10
2023-03-21T14:02:55.493Z,8.73
2023-03-21T14:05:23.339Z,6.10
2023-03-21T14:07:52.882Z,6.68
2023-03-21T14:10:28.007Z,7.30
2023-03-21T14:12:54.524Z,5.13
2023-03-21T14:15:22.995Z,6.35
2023-03-21T14:17:50.852Z,6.32
2023-03-21T14:20:38.785Z,5.97
2023-03-21T14:23:06.710Z,4.80
2023-03-21T14:25:44.403Z,6.93
2023-03-21T14:30:41.273Z,4.57
2023-03-21T14:33:27.977Z,5.10
2023-03-21T14:35:58.916Z,3.97
2023-03-21T14:38:26.705Z,4.05
2023-03-21T14:40:58.319Z,5.50
2023-03-21T14:43:25.345Z,5.30
2023-03-21T14:45:56.266Z,7.03
2023-03-21T14:48:42.984Z,4.45
2023-03-21T14:51:12.221Z,4.70
2023-03-21T14:53:40.520Z,6.30
2023-03-21T14:56:16.768Z,6.57
2023-03-21T14:58:45.146Z,5.05
2023-03-21T15:01:21.855Z,4.15
2023-03-21T15:03:50.270Z,4.22
2023-03-21T15:06:17.476Z,6.03
2023-03-21T15:09:13.227Z,4.88
2023-03-21T15:11:40.085Z,4.63
2023-03-21T15:14:07.645Z,5.82
2023-03-21T15:16:34.440Z,4.95
2023-03-21T15:19:01.999Z,6.60
2023-03-21T15:21:35.032Z,4.65
2023-03-21T15:24:24.803Z,5.43
2023-03-21T15:26:51.793Z,4.75
2023-03-21T15:29:18.356Z,5.15
2023-03-21T15:31:46.845Z,4.72
2023-03-21T15:34:23.783Z,5.07
2023-03-21T15:37:13.936Z,5.38
2023-03-21T15:42:24.950Z,4.60
2023-03-21T15:44:58.743Z,4.80
2023-03-21T15:47:45.557Z,4.68
2023-03-21T15:50:17.235Z,5.10
2023-03-21T15:52:50.023Z,5.72
2023-03-21T15:55:30.461Z,5.55
2023-03-21T15:58:09.898Z,5.38
2023-03-21T16:00:44.117Z,6.57
2023-03-21T16:03:50.985Z,6.82
2023-03-21T16:06:30.075Z,6.18
2023-03-21T16:09:12.511Z,6.70
2023-03-21T16:11:55.611Z,6.70
2023-03-21T16:14:22.525Z,8.60
2023-03-21T16:16:52.358Z,6.68
2023-03-21T16:19:18.926Z,5.63
2023-03-21T16:21:46.098Z,6.40
2023-03-21T16:24:18.733Z,6.82
2023-03-21T16:27:22.358Z,6.78
2023-03-21T16:29:42.461Z,7.28
2023-03-21T16:32:19.850Z,6.22
2023-03-21T16:37:41.817Z,7.30
2023-03-21T16:40:25.556Z,7.70
2023-03-21T16:42:55.208Z,6.75
2023-03-21T16:45:23.255Z,9.52
2023-03-21T16:47:53.223Z,8.35
2023-03-21T16:50:52.731Z,7.57
2023-03-21T16:53:31.509Z,7.25
2023-03-21T16:56:28.340Z,6.50
2023-03-21T16:59:17.903Z,6.72
2023-03-21T17:02:07.457Z,6.72
2023-03-21T17:04:46.993Z,8.63
2023-03-21T17:07:40.784Z,8.57
2023-03-21T17:10:24.241Z,7.80
2023-03-21T17:15:37.488Z,8.65
2023-03-21T17:24:25.820Z,6.43
2023-03-21T17:29:48.535Z,7.07
2023-03-21T17:32:17.850Z,7.93
2023-03-21T17:34:48.694Z,6.63
2023-03-21T17:37:44.189Z,5.82
2023-03-21T17:40:19.156Z,6.80
2023-03-21T17:42:54.919Z,5.63
2023-03-21T17:45:22.974Z,6.70
2023-03-21T17:47:52.537Z,5.80
2023-03-21T17:50:30.255Z,5.95
2023-03-21T17:53:12.660Z,6.38
2023-03-21T17:55:54.431Z,5.43
2023-03-21T17:58:35.513Z,5.15
2023-03-21T18:01:20.538Z,6.10
2023-03-21T18:03:57.388Z,6.82
2023-03-21T18:06:31.925Z,5.75
2023-03-21T18:11:53.423Z,4.80
2023-03-21T18:14:27.926Z,4.88
2023-03-21T18:17:02.556Z,4.72
2023-03-21T18:19:29.622Z,4.88
2023-03-21T18:25:27.470Z,5.53
2023-03-21T18:28:09.877Z,5.63
2023-03-21T18:31:07.655Z,4.43
2023-03-21T18:33:57.385Z,4.93
2023-03-21T18:36:27.857Z,5.22
2023-03-21T18:39:01.306Z,4.85
2023-03-21T18:44:56.057Z,5.27
2023-03-21T18:47:33.162Z,4.60
2023-03-21T18:50:23.318Z,4.55
2023-03-21T18:55:49.054Z,4.40
2023-03-21T18:58:56.427Z,4.15
2023-03-21T19:01:39.937Z,4.35
2023-03-21T19:04:23.009Z,6.32
2023-03-21T19:07:02.344Z,4.10
2023-03-21T19:09:31.986Z,5.18
2023-03-21T19:11:58.852Z,4.93
2023-03-21T19:14:25.618Z,5.03
2023-03-21T19:17:45.571Z,4.25
2023-03-21T19:25:56.372Z,6.18
2023-03-21T19:28:29.462Z,4.85
2023-03-21T19:28:52.648Z,4.90
2023-03-21T19:31:23.465Z,5.80
2023-03-21T19:33:59.639Z,6.03
2023-03-21T19:36:29.106Z,6.43
2023-03-21T19:38:55.626Z,5.93
2023-03-21T19:41:26.769Z,6.90
2023-03-21T19:44:00.632Z,6.00
2023-03-21T19:46:29.445Z,6.80
2023-03-21T19:49:08.216Z,6.43
2023-03-21T19:51:34.753Z,6.25
2023-03-21T19:54:07.781Z,6.43
2023-03-21T19:56:34.826Z,8.43
2023-03-21T19:59:03.140Z,9.75
2023-03-21T20:01:30.447Z,9.80
2023-03-21T20:03:57.044Z,10.25
2023-03-21T20:06:24.065Z,10.25
2023-03-21T20:09:41.419Z,7.68
2023-03-21T20:11:40.762Z,7.75
2023-03-21T20:14:07.424Z,8.00
2023-03-21T20:16:35.654Z,8.48
2023-03-21T20:19:06.172Z,7.80
2023-03-21T20:21:44.344Z,7.82
2023-03-21T20:24:14.064Z,8.57
2023-03-21T20:26:40.884Z,8.32
2023-03-21T20:31:56.263Z,8.70
2023-03-21T20:34:23.005Z,8.32
2023-03-21T20:36:49.471Z,8.27
2023-03-21T23:40:10.701Z,13.82
2023-03-21T23:42:39.007Z,15.55
2023-03-21T23:45:28.676Z,14.13
2023-03-21T23:50:41.485Z,16.30
2023-03-21T23:53:08.130Z,15.93
2023-03-21T23:55:37.765Z,15.93
2023-03-21T23:58:04.332Z,14.82
